Time;durP1;ratioP1;P1;durP2;ratioP2;P2;SDS_P1;SDS_P2;PMS_P1;PMS_P2;Temp;Humidity;BMP_temperature;BMP_pressure;BME280_temperature;BME280_humidity;BME280_pressure;Samples;Min_cycle;Max_cycle;Signal;HPM_P1;HPM_P2
2022/05/22 00:00:29;;;;;;;0.30;0.20;;;24.20;99.90;;;;;;5038121;28;20292;-79
2022/05/22 00:02:56;;;;;;;0.45;0.30;;;24.20;99.90;;;;;;5069463;22;20282;-81
2022/05/22 00:05:24;;;;;;;4.68;0.50;;;24.20;99.90;;;;;;5061414;28;20287;-81
2022/05/22 00:07:51;;;;;;;0.40;0.40;;;24.20;99.90;;;;;;5062158;28;20295;-81
2022/05/22 00:10:18;;;;;;;3.47;0.40;;;24.20;99.90;;;;;;5062072;28;20287;-81
2022/05/22 00:12:45;;;;;;;5.30;0.50;;;24.20;99.90;;;;;;5061605;28;20222;-81
2022/05/22 00:15:14;;;;;;;2.72;0.30;;;24.10;99.90;;;;;;5062152;28;20220;-81
2022/05/22 00:17:42;;;;;;;2.83;0.40;;;24.10;99.90;;;;;;5062316;28;20292;-81
2022/05/22 00:20:11;;;;;;;1.95;0.45;;;24.10;99.90;;;;;;5062208;28;20624;-81
2022/05/22 00:22:38;;;;;;;4.85;0.90;;;24.20;99.90;;;;;;5063240;28;20310;-81
2022/05/22 00:25:10;;;;;;;0.65;0.40;;;24.10;99.90;;;;;;5061217;28;20204;-81
2022/05/22 00:27:37;;;;;;;3.50;0.43;;;24.20;99.90;;;;;;5061502;28;20248;-81
2022/05/22 00:30:05;;;;;;;1.63;0.68;;;24.20;99.90;;;;;;5061594;28;20742;-81
2022/05/22 00:32:32;;;;;;;1.40;0.40;;;24.10;99.90;;;;;;5062212;28;20243;-81
2022/05/22 00:35:01;;;;;;;1.30;0.40;;;24.10;99.90;;;;;;5061387;28;20286;-81
2022/05/22 00:37:27;;;;;;;1.20;0.50;;;24.10;99.90;;;;;;5060662;28;20267;-81
2022/05/22 00:39:54;;;;;;;3.70;0.50;;;24.10;99.90;;;;;;5060111;28;20291;-80
2022/05/22 00:42:23;;;;;;;1.88;0.30;;;24.10;99.90;;;;;;5059553;28;20235;-81
2022/05/22 00:44:50;;;;;;;3.00;0.40;;;24.10;99.90;;;;;;5060512;28;20204;-81
2022/05/22 00:47:18;;;;;;;2.15;0.40;;;24.10;99.90;;;;;;5060781;28;20291;-81
2022/05/22 00:49:46;;;;;;;1.05;0.60;;;24.10;99.90;;;;;;5061570;28;20290;-81
2022/05/22 00:52:19;;;;;;;0.73;0.40;;;24.10;99.90;;;;;;5062600;28;20647;-81
2022/05/22 00:54:50;;;;;;;9.85;0.88;;;24.10;99.90;;;;;;5062836;28;20208;-83
2022/05/22 00:57:21;;;;;;;9.70;0.80;;;24.10;99.90;;;;;;5063899;28;20249;-82
2022/05/22 00:59:51;;;;;;;6.30;0.40;;;24.10;99.90;;;;;;5065014;28;20223;-82
2022/05/22 01:02:19;;;;;;;2.47;0.50;;;24.10;99.90;;;;;;5063419;28;20200;-82
2022/05/22 01:04:49;;;;;;;3.60;0.50;;;24.10;99.90;;;;;;5063045;28;20267;-82
2022/05/22 01:07:18;;;;;;;1.42;0.40;;;24.10;99.90;;;;;;5062866;28;20212;-82
2022/05/22 01:09:46;;;;;;;3.42;0.60;;;24.10;99.90;;;;;;5063206;28;20210;-82
2022/05/22 01:12:17;;;;;;;3.60;0.65;;;24.10;99.90;;;;;;5063346;28;20290;-82
2022/05/22 01:14:47;;;;;;;3.03;0.60;;;24.10;99.90;;;;;;5063567;28;20208;-82
2022/05/22 01:17:14;;;;;;;2.47;0.50;;;24.10;99.90;;;;;;5062614;28;20193;-81
2022/05/22 01:19:41;;;;;;;2.05;0.50;;;24.10;99.90;;;;;;5061840;28;20263;-81
2022/05/22 01:22:13;;;;;;;1.83;0.40;;;24.10;99.90;;;;;;5061606;28;20625;-81
2022/05/22 01:24:41;;;;;;;2.35;0.80;;;24.10;99.90;;;;;;5060751;28;20180;-81
2022/05/22 01:27:12;;;;;;;6.90;0.60;;;24.10;99.90;;;;;;5061860;28;20231;-81
2022/05/22 01:29:39;;;;;;;1.52;0.32;;;24.10;99.90;;;;;;5061265;28;20263;-81
2022/05/22 01:32:06;;;;;;;0.98;0.40;;;24.00;99.90;;;;;;5061303;28;20228;-81
2022/05/22 01:34:34;;;;;;;0.60;0.40;;;24.00;99.90;;;;;;5061786;28;20260;-81
2022/05/22 01:37:00;;;;;;;2.38;0.65;;;24.00;99.90;;;;;;5060844;28;20200;-82
2022/05/22 01:39:29;;;;;;;4.22;0.75;;;24.10;99.90;;;;;;5061362;28;20228;-82
2022/05/22 01:41:56;;;;;;;8.00;0.70;;;24.10;99.90;;;;;;5061139;28;20291;-81
2022/05/22 01:44:23;;;;;;;3.28;0.63;;;24.10;99.90;;;;;;5062164;28;20306;-81
2022/05/22 01:46:50;;;;;;;1.00;0.60;;;24.00;99.90;;;;;;5061340;28;20283;-81
2022/05/22 01:49:17;;;;;;;0.80;0.50;;;24.10;99.90;;;;;;5062439;28;20250;-81
2022/05/22 01:51:44;;;;;;;3.88;0.60;;;24.10;99.90;;;;;;5061966;28;20220;-81
2022/05/22 01:54:11;;;;;;;6.03;0.55;;;24.10;99.90;;;;;;5061668;28;20256;-81
2022/05/22 01:56:39;;;;;;;2.38;0.60;;;24.10;99.90;;;;;;5061418;28;20264;-81
2022/05/22 01:59:07;;;;;;;2.75;0.70;;;24.10;99.90;;;;;;5061996;28;20283;-81
2022/05/22 02:01:34;;;;;;;1.73;0.63;;;24.10;99.90;;;;;;5062124;28;20231;-81
2022/05/22 02:04:01;;;;;;;4.90;0.70;;;24.10;99.90;;;;;;5060858;28;20292;-81
2022/05/22 02:06:28;;;;;;;8.18;0.50;;;24.00;99.90;;;;;;5061327;28;20243;-81
2022/05/22 02:08:53;;;;;;;3.80;0.57;;;24.10;99.90;;;;;;5062389;28;20279;-81
2022/05/22 02:11:20;;;;;;;2.65;0.52;;;24.00;99.90;;;;;;5061429;28;20227;-81
2022/05/22 02:13:49;;;;;;;1.13;0.30;;;24.00;99.90;;;;;;5062074;28;20216;-81
2022/05/22 02:16:16;;;;;;;1.63;0.30;;;24.10;99.90;;;;;;5061927;28;20236;-81
2022/05/22 02:18:43;;;;;;;2.33;0.60;;;24.00;99.90;;;;;;5061874;28;20204;-81
2022/05/22 02:21:11;;;;;;;3.47;0.75;;;24.00;99.90;;;;;;5061254;28;20246;-82
2022/05/22 02:23:38;;;;;;;2.03;0.52;;;24.00;99.90;;;;;;5060910;28;20228;-81
2022/05/22 02:26:10;;;;;;;1.92;0.50;;;24.00;99.90;;;;;;5060995;28;20291;-82
2022/05/22 02:28:38;;;;;;;2.33;0.60;;;24.10;99.90;;;;;;5061008;28;20343;-81
2022/05/22 02:31:07;;;;;;;6.00;0.75;;;24.00;99.90;;;;;;5060535;28;20249;-81
2022/05/22 02:33:35;;;;;;;1.10;0.52;;;24.00;99.90;;;;;;5061647;28;20299;-81
2022/05/22 02:36:03;;;;;;;6.47;0.75;;;24.00;99.90;;;;;;5060862;28;20196;-81
2022/05/22 02:38:31;;;;;;;3.63;0.80;;;24.00;99.90;;;;;;5060386;28;20195;-81
2022/05/22 02:40:58;;;;;;;1.80;0.40;;;24.00;99.90;;;;;;5061461;28;20272;-81
2022/05/22 02:43:25;;;;;;;4.00;0.82;;;24.00;99.90;;;;;;5061393;28;20230;-81
2022/05/22 02:45:52;;;;;;;2.72;0.60;;;24.00;99.90;;;;;;5060202;28;20200;-82
2022/05/22 02:48:21;;;;;;;4.80;0.65;;;24.00;99.90;;;;;;5061917;28;20201;-81
2022/05/22 02:50:47;;;;;;;5.40;0.63;;;24.00;99.90;;;;;;5061295;28;20200;-81
2022/05/22 02:53:14;;;;;;;2.72;0.60;;;24.00;99.90;;;;;;5060634;28;20239;-81
2022/05/22 02:55:43;;;;;;;3.78;0.60;;;24.00;99.90;;;;;;5059476;28;20254;-81
2022/05/22 02:58:11;;;;;;;11.00;1.13;;;24.00;99.90;;;;;;5058971;28;20211;-81
2022/05/22 03:00:38;;;;;;;2.50;0.73;;;24.00;99.90;;;;;;5059900;28;20663;-81
2022/05/22 03:03:05;;;;;;;5.00;0.77;;;24.00;99.90;;;;;;5059739;28;20232;-81
2022/05/22 03:08:14;;;;;;;3.95;0.73;;;24.00;99.90;;;;;;5063729;28;20200;-81
2022/05/22 03:10:41;;;;;;;4.35;0.70;;;24.00;99.90;;;;;;5070960;28;20243;-81
2022/05/22 03:13:08;;;;;;;3.90;0.60;;;24.00;99.90;;;;;;5073403;28;20235;-81
2022/05/22 03:15:35;;;;;;;4.18;0.60;;;24.00;99.90;;;;;;5074690;28;20218;-81
2022/05/22 03:18:02;;;;;;;5.65;0.77;;;24.00;99.90;;;;;;5077290;28;20195;-81
2022/05/22 03:20:30;;;;;;;1.33;0.70;;;24.00;99.90;;;;;;5066112;28;20729;-82
2022/05/22 03:22:58;;;;;;;1.65;0.50;;;24.00;99.90;;;;;;5058820;28;20231;-82
2022/05/22 03:25:25;;;;;;;1.83;0.50;;;24.00;99.90;;;;;;5058817;28;20727;-82
2022/05/22 03:27:52;;;;;;;2.53;0.40;;;24.00;99.90;;;;;;5058389;28;20730;-82
2022/05/22 03:30:19;;;;;;;0.77;0.50;;;24.00;99.90;;;;;;5058550;28;20288;-82
2022/05/22 03:32:46;;;;;;;3.88;0.55;;;24.00;99.90;;;;;;5058676;28;20255;-82
2022/05/22 03:35:12;;;;;;;1.40;0.40;;;24.00;99.90;;;;;;5060742;28;20228;-82
2022/05/22 03:37:39;;;;;;;1.77;0.43;;;24.00;99.90;;;;;;5062886;28;20232;-82
2022/05/22 03:40:09;;;;;;;3.75;0.70;;;24.00;99.90;;;;;;5063334;28;20230;-82
2022/05/22 03:42:36;;;;;;;1.25;0.50;;;24.00;99.90;;;;;;5067895;28;20227;-82
2022/05/22 03:45:04;;;;;;;0.60;0.40;;;24.00;99.90;;;;;;5065682;28;20220;-81
2022/05/22 03:47:31;;;;;;;0.75;0.60;;;24.00;99.90;;;;;;5061914;28;20287;-81
2022/05/22 03:49:59;;;;;;;1.58;0.50;;;24.00;99.90;;;;;;5063138;28;20207;-81
2022/05/22 03:52:26;;;;;;;1.38;0.60;;;24.00;99.90;;;;;;5062963;28;20271;-81
2022/05/22 03:54:52;;;;;;;1.33;0.65;;;24.00;99.90;;;;;;5062572;28;20227;-81
2022/05/22 03:57:21;;;;;;;2.08;0.63;;;24.00;99.90;;;;;;5062869;28;20288;-81
2022/05/22 03:59:47;;;;;;;2.38;0.50;;;24.00;99.90;;;;;;5066904;28;20219;-81
2022/05/22 04:02:14;;;;;;;3.75;0.60;;;24.00;99.90;;;;;;5065196;28;20203;-81
2022/05/22 04:04:41;;;;;;;1.38;0.60;;;24.00;99.90;;;;;;5063883;28;20295;-81
2022/05/22 04:07:08;;;;;;;0.50;0.50;;;24.00;99.90;;;;;;5063871;28;20287;-81
2022/05/22 04:09:35;;;;;;;4.03;0.70;;;24.00;99.90;;;;;;5063241;28;20230;-81
2022/05/22 04:12:07;;;;;;;9.82;0.80;;;24.00;99.90;;;;;;5061573;28;20236;-82
2022/05/22 04:14:35;;;;;;;8.68;0.82;;;24.00;99.90;;;;;;5061759;28;20184;-82
2022/05/22 04:17:03;;;;;;;1.30;0.50;;;24.00;99.90;;;;;;5063437;28;20200;-82
2022/05/22 04:19:31;;;;;;;6.93;0.88;;;24.00;99.90;;;;;;5062614;28;20268;-81
2022/05/22 04:21:58;;;;;;;3.13;0.63;;;24.00;99.90;;;;;;5062098;28;20204;-81
2022/05/22 04:27:10;;;;;;;2.55;0.52;;;24.00;99.90;;;;;;5062115;28;20203;-81
2022/05/22 04:29:38;;;;;;;3.22;0.73;;;24.00;99.90;;;;;;5063319;28;20677;-81
2022/05/22 04:32:06;;;;;;;5.65;0.73;;;24.00;99.90;;;;;;5062371;28;20295;-82
2022/05/22 04:34:33;;;;;;;2.38;0.50;;;24.00;99.90;;;;;;5061340;28;20193;-81
2022/05/22 04:37:00;;;;;;;2.47;0.90;;;24.00;99.90;;;;;;5061725;28;20291;-81
2022/05/22 04:39:27;;;;;;;1.98;0.57;;;24.00;99.90;;;;;;5061325;28;20286;-81
2022/05/22 04:41:54;;;;;;;4.80;0.88;;;24.00;99.90;;;;;;5063588;28;20234;-81
2022/05/22 04:44:21;;;;;;;1.17;0.80;;;24.00;99.90;;;;;;5065872;28;20647;-81
2022/05/22 04:46:49;;;;;;;1.75;0.52;;;24.00;99.90;;;;;;5063082;28;20726;-81
2022/05/22 04:49:16;;;;;;;2.97;0.80;;;23.90;99.90;;;;;;5062560;28;20617;-81
2022/05/22 04:51:43;;;;;;;3.55;0.85;;;24.00;99.90;;;;;;5061918;28;20272;-81
2022/05/22 04:54:11;;;;;;;1.73;0.90;;;24.00;99.90;;;;;;5061680;28;20243;-81
2022/05/22 04:56:38;;;;;;;3.42;0.60;;;24.00;99.90;;;;;;5061988;28;20750;-81
2022/05/22 04:59:05;;;;;;;3.15;0.47;;;24.00;99.90;;;;;;5061941;28;20627;-81
2022/05/22 05:01:32;;;;;;;2.53;0.70;;;24.00;99.90;;;;;;5062295;28;20200;-81
2022/05/22 05:04:00;;;;;;;3.03;0.50;;;24.00;99.90;;;;;;5061765;28;20283;-81
2022/05/22 05:06:29;;;;;;;4.53;0.80;;;24.00;99.90;;;;;;5062382;28;20647;-81
2022/05/22 05:08:56;;;;;;;1.40;0.60;;;24.00;99.90;;;;;;5062030;28;20687;-81
2022/05/22 05:11:22;;;;;;;3.83;0.63;;;24.00;99.90;;;;;;5062225;28;20263;-80
2022/05/22 05:13:49;;;;;;;1.05;0.52;;;23.90;99.90;;;;;;5061270;28;20280;-82
2022/05/22 05:16:16;;;;;;;3.47;0.60;;;24.00;99.90;;;;;;5061499;28;20730;-82
2022/05/22 05:18:43;;;;;;;6.00;0.70;;;23.90;99.90;;;;;;5060855;28;20257;-81
2022/05/22 05:21:13;;;;;;;2.08;0.85;;;24.00;99.90;;;;;;5060398;28;20263;-81
2022/05/22 05:23:41;;;;;;;1.65;0.60;;;24.00;99.90;;;;;;5059964;28;20252;-81
2022/05/22 05:26:08;;;;;;;1.77;0.70;;;23.90;99.90;;;;;;5061142;28;20227;-80
2022/05/22 05:28:35;;;;;;;3.03;0.60;;;24.00;99.90;;;;;;5060114;28;20286;-80
2022/05/22 05:31:03;;;;;;;4.60;0.85;;;24.00;99.90;;;;;;5061170;28;20628;-80
2022/05/22 05:33:32;;;;;;;1.50;0.50;;;23.90;99.90;;;;;;5061998;28;20231;-81
2022/05/22 05:36:00;;;;;;;4.40;0.57;;;23.90;99.90;;;;;;5062951;28;20560;-82
2022/05/22 05:38:30;;;;;;;1.65;0.47;;;24.00;99.90;;;;;;5060448;28;20663;-82
2022/05/22 05:40:57;;;;;;;2.78;0.60;;;24.00;99.90;;;;;;5061265;28;20227;-82
2022/05/22 05:43:24;;;;;;;3.50;0.60;;;23.90;99.90;;;;;;5059958;28;20308;-82
2022/05/22 05:45:51;;;;;;;3.03;0.57;;;23.90;99.90;;;;;;5059714;28;20323;-81
2022/05/22 05:48:18;;;;;;;6.32;0.80;;;24.00;99.90;;;;;;5058963;28;20231;-81
2022/05/22 05:50:44;;;;;;;3.33;0.57;;;24.00;99.90;;;;;;5058506;28;20200;-81
2022/05/22 05:53:11;;;;;;;3.53;0.63;;;24.00;99.90;;;;;;5058519;28;20247;-81
2022/05/22 05:55:39;;;;;;;1.55;0.50;;;24.00;99.90;;;;;;5058627;28;20287;-81
2022/05/22 05:58:06;;;;;;;1.92;0.60;;;24.00;99.90;;;;;;5058984;28;20756;-82
2022/05/22 06:00:33;;;;;;;5.78;0.85;;;24.00;99.90;;;;;;5059536;28;20226;-82
2022/05/22 06:03:01;;;;;;;3.05;0.50;;;24.00;99.90;;;;;;5082116;22;20315;-79
2022/05/22 06:05:28;;;;;;;5.82;0.73;;;24.00;99.90;;;;;;5054239;28;20235;-77
2022/05/22 06:07:54;;;;;;;6.95;0.95;;;24.00;99.90;;;;;;5053991;28;20196;-77
2022/05/22 06:10:22;;;;;;;8.50;0.73;;;24.00;99.90;;;;;;5053623;28;20246;-77
2022/05/22 06:12:50;;;;;;;3.95;0.85;;;24.00;99.90;;;;;;5053565;28;20216;-77
2022/05/22 06:15:17;;;;;;;2.40;0.88;;;24.00;99.90;;;;;;5053678;28;20291;-77
2022/05/22 06:17:46;;;;;;;2.10;0.80;;;24.00;99.90;;;;;;5053424;28;20294;-77
2022/05/22 06:20:16;;;;;;;3.80;0.70;;;24.00;99.90;;;;;;5053728;28;20192;-77
2022/05/22 06:22:45;;;;;;;0.50;0.40;;;24.00;99.90;;;;;;5053746;28;20242;-78
2022/05/22 06:25:14;;;;;;;2.67;0.60;;;24.00;99.90;;;;;;5053521;28;20223;-78
2022/05/22 06:27:43;;;;;;;2.20;0.70;;;24.00;99.90;;;;;;5053648;28;20281;-78
2022/05/22 06:30:14;;;;;;;4.75;1.02;;;24.00;99.90;;;;;;5053409;28;20671;-78
2022/05/22 06:32:43;;;;;;;2.50;0.63;;;24.00;99.90;;;;;;5057898;28;20271;-78
2022/05/22 06:35:12;;;;;;;1.90;0.70;;;24.00;99.90;;;;;;5058857;28;20558;-77
2022/05/22 06:37:39;;;;;;;2.15;0.70;;;24.00;99.90;;;;;;5058975;28;20266;-77
2022/05/22 06:40:08;;;;;;;5.40;0.95;;;24.00;99.90;;;;;;5058580;28;20231;-77
2022/05/22 06:42:44;;;;;;;2.58;0.50;;;24.00;99.90;;;;;;5058815;28;20246;-76
2022/05/22 06:45:16;;;;;;;2.00;0.80;;;24.00;99.90;;;;;;5058523;28;20204;-78
2022/05/22 06:47:45;;;;;;;9.82;0.77;;;24.00;99.90;;;;;;5061353;28;20207;-79
2022/05/22 06:50:15;;;;;;;3.70;0.90;;;24.00;99.90;;;;;;5061072;28;20203;-79
2022/05/22 06:52:42;;;;;;;5.78;0.68;;;24.00;99.90;;;;;;5061103;28;20608;-79
2022/05/22 06:55:11;;;;;;;8.68;0.73;;;24.00;99.90;;;;;;5057929;28;20258;-78
2022/05/22 06:57:40;;;;;;;4.97;1.55;;;24.00;99.90;;;;;;5059772;28;20207;-79
2022/05/22 07:00:12;;;;;;;3.13;0.43;;;24.00;99.90;;;;;;5059888;28;20200;-79
2022/05/22 07:02:41;;;;;;;7.22;1.10;;;24.00;99.90;;;;;;5059836;28;20184;-78
2022/05/22 07:05:10;;;;;;;7.65;1.02;;;24.00;99.90;;;;;;5055937;28;20204;-78
2022/05/22 07:07:37;;;;;;;1.00;0.70;;;24.00;99.90;;;;;;5053019;28;20206;-77
2022/05/22 07:10:04;;;;;;;0.70;0.63;;;24.00;99.90;;;;;;5052978;28;20675;-76
2022/05/22 07:12:31;;;;;;;4.07;0.98;;;24.00;99.90;;;;;;5053429;28;20214;-77
2022/05/22 07:14:58;;;;;;;5.47;0.75;;;24.00;99.90;;;;;;5052961;28;20192;-77
2022/05/22 07:17:25;;;;;;;5.38;0.63;;;24.00;99.90;;;;;;5053123;28;20200;-77
2022/05/22 07:19:55;;;;;;;10.57;1.35;;;24.00;99.90;;;;;;5053150;28;20287;-77
2022/05/22 07:22:22;;;;;;;4.65;0.75;;;24.00;99.90;;;;;;5056294;28;20222;-77
2022/05/22 07:24:49;;;;;;;1.98;0.75;;;24.00;99.90;;;;;;5056808;28;20757;-79
2022/05/22 07:27:16;;;;;;;10.10;0.77;;;24.00;99.90;;;;;;5057638;28;20202;-76
2022/05/22 07:29:44;;;;;;;6.22;0.77;;;24.00;99.90;;;;;;5057054;28;20197;-76
2022/05/22 07:32:11;;;;;;;2.58;0.80;;;24.00;99.90;;;;;;5056758;28;20238;-75
2022/05/22 07:34:38;;;;;;;2.70;0.70;;;24.00;99.90;;;;;;5056845;28;20631;-77
2022/05/22 07:37:08;;;;;;;2.75;0.85;;;24.00;99.90;;;;;;5056805;28;20200;-75
2022/05/22 07:39:35;;;;;;;11.30;2.13;;;24.00;99.90;;;;;;5056476;28;20204;-76
2022/05/22 07:42:02;;;;;;;8.95;1.30;;;23.90;99.90;;;;;;5056666;28;20200;-76
2022/05/22 07:44:29;;;;;;;30.98;1.60;;;23.90;99.90;;;;;;5056429;28;20310;-77
2022/05/22 07:46:56;;;;;;;3.75;1.20;;;23.80;99.90;;;;;;5056562;28;20204;-74
2022/05/22 07:52:10;;;;;;;5.60;1.08;;;23.80;99.90;;;;;;5056317;28;20188;-74
2022/05/22 07:54:39;;;;;;;4.38;0.65;;;23.80;99.90;;;;;;5056370;28;20224;-74
2022/05/22 07:57:07;;;;;;;0.98;0.60;;;23.70;99.90;;;;;;5056078;28;20706;-74
2022/05/22 07:59:35;;;;;;;0.93;0.52;;;23.70;99.90;;;;;;5056214;28;20291;-74
2022/05/22 08:02:02;;;;;;;1.13;0.70;;;23.70;99.90;;;;;;5056042;28;20659;-74
2022/05/22 08:04:30;;;;;;;1.05;0.60;;;23.60;99.90;;;;;;5055996;28;20235;-74
2022/05/22 08:06:57;;;;;;;4.18;1.05;;;23.60;99.90;;;;;;5056526;28;20585;-76
2022/05/22 08:09:25;;;;;;;1.77;0.88;;;23.60;99.30;;;;;;5056238;28;20274;-77
2022/05/22 08:11:52;;;;;;;7.13;0.98;;;23.60;98.70;;;;;;5055918;28;20589;-77
2022/05/22 08:14:19;;;;;;;1.52;0.70;;;23.60;98.40;;;;;;5056073;28;20255;-75
2022/05/22 08:16:46;;;;;;;2.40;0.90;;;23.60;98.00;;;;;;5055983;28;20235;-76
2022/05/22 08:19:13;;;;;;;5.55;0.80;;;23.60;97.80;;;;;;5056617;28;20201;-77
2022/05/22 08:21:40;;;;;;;2.47;0.80;;;23.60;97.30;;;;;;5055619;28;20195;-75
2022/05/22 08:24:07;;;;;;;3.05;0.70;;;23.60;97.00;;;;;;5056335;28;20230;-76
2022/05/22 08:26:37;;;;;;;0.45;0.40;;;23.60;96.60;;;;;;5056107;28;20224;-75
2022/05/22 08:29:04;;;;;;;1.38;0.30;;;23.60;96.00;;;;;;5055749;28;20279;-76
2022/05/22 08:31:31;;;;;;;3.67;0.25;;;23.60;95.90;;;;;;5055739;28;20291;-75
2022/05/22 08:33:58;;;;;;;4.50;0.32;;;23.50;95.20;;;;;;5055478;28;20259;-76
2022/05/22 08:36:24;;;;;;;6.45;0.60;;;23.50;94.80;;;;;;5057668;28;20235;-76
2022/05/22 08:38:51;;;;;;;7.82;0.30;;;23.50;94.50;;;;;;5055530;28;20632;-75
2022/05/22 08:41:22;;;;;;;2.05;0.20;;;23.50;94.50;;;;;;5058992;28;20291;-77
2022/05/22 08:43:56;;;;;;;0.95;0.40;;;23.50;94.20;;;;;;5060283;28;20255;-76
2022/05/22 08:46:36;;;;;;;2.63;0.17;;;23.60;94.00;;;;;;5060833;28;20217;-78
2022/05/22 08:49:09;;;;;;;0.10;0.10;;;23.60;93.70;;;;;;5061595;28;20196;-80
2022/05/22 08:51:41;;;;;;;1.80;0.10;;;23.60;93.60;;;;;;5062517;28;20583;-77
2022/05/22 08:54:14;;;;;;;0.00;0.00;;;23.60;93.40;;;;;;5061506;28;20224;-78
2022/05/22 08:59:32;;;;;;;0.10;0.10;;;23.50;93.10;;;;;;5062254;28;20226;-79
2022/05/22 09:02:10;;;;;;;2.65;0.43;;;23.60;92.90;;;;;;5062017;28;20220;-79
2022/05/22 09:04:42;;;;;;;10.43;1.23;;;23.60;92.70;;;;;;5062334;28;20297;-80
2022/05/22 09:07:19;;;;;;;8.05;1.05;;;23.60;92.80;;;;;;5064063;28;20184;-79
2022/05/22 09:09:51;;;;;;;18.17;2.33;;;23.70;92.80;;;;;;5060545;28;20185;-80
2022/05/22 09:12:52;;;;;;;27.88;2.65;;;23.70;93.00;;;;;;5061026;28;20185;-80
2022/05/22 09:15:24;;;;;;;22.08;2.17;;;23.80;93.20;;;;;;5043914;28;20223;-78
2022/05/22 09:18:01;;;;;;;17.35;2.10;;;23.80;93.40;;;;;;5061628;28;20188;-77
2022/05/22 09:20:40;;;;;;;23.77;2.53;;;23.90;93.40;;;;;;5061290;28;20184;-78
2022/05/22 09:23:22;;;;;;;22.67;2.40;;;23.90;93.30;;;;;;5060982;28;20220;-80
2022/05/22 09:25:57;;;;;;;45.63;3.72;;;23.90;93.30;;;;;;5061467;28;20254;-79
2022/05/22 09:28:36;;;;;;;29.13;3.05;;;23.90;93.30;;;;;;5063040;28;20184;-79
2022/05/22 09:31:13;;;;;;;40.90;4.70;;;23.90;93.50;;;;;;5061403;28;20184;-79
2022/05/22 09:33:47;;;;;;;40.78;4.35;;;24.00;93.60;;;;;;5062085;28;20224;-79
2022/05/22 09:36:25;;;;;;;35.20;2.67;;;24.00;93.70;;;;;;5061131;28;20246;-77
2022/05/22 09:39:08;;;;;;;21.65;2.85;;;24.10;94.10;;;;;;5061802;28;20295;-76
2022/05/22 09:41:47;;;;;;;19.83;1.38;;;24.10;93.90;;;;;;5056570;28;20181;-76
2022/05/22 09:44:59;;;;;;;11.82;0.90;;;24.10;93.50;;;;;;5053445;28;20721;-76
2022/05/22 09:48:01;;;;;;;12.50;2.20;;;24.10;93.20;;;;;;5028732;28;20202;-77
2022/05/22 09:50:31;;;;;;;6.85;1.58;;;24.00;92.80;;;;;;5054379;28;20614;-75
2022/05/22 09:53:04;;;;;;;10.90;1.27;;;23.90;92.30;;;;;;5054357;28;20311;-74
2022/05/22 09:55:42;;;;;;;10.63;1.40;;;23.80;91.60;;;;;;5053984;28;20623;-75
2022/05/22 09:58:36;;;;;;;7.38;1.10;;;23.80;90.90;;;;;;5054104;28;20191;-75
2022/05/22 10:01:10;;;;;;;3.20;0.80;;;23.70;90.50;;;;;;5052242;28;20222;-75
2022/05/22 10:03:47;;;;;;;0.93;0.93;;;23.60;90.20;;;;;;5053789;28;20232;-75
2022/05/22 10:06:21;;;;;;;2.15;1.00;;;23.60;89.10;;;;;;5054345;28;20215;-74
2022/05/22 10:08:58;;;;;;;1.13;0.60;;;23.50;88.00;;;;;;5056756;28;20286;-75
2022/05/22 10:11:33;;;;;;;2.03;0.80;;;23.50;87.10;;;;;;5055714;28;20198;-76
2022/05/22 10:14:18;;;;;;;0.90;0.80;;;23.50;86.50;;;;;;5055428;28;20223;-74
2022/05/22 10:17:00;;;;;;;0.57;0.57;;;23.50;85.30;;;;;;5055926;28;20271;-73
2022/05/22 10:19:39;;;;;;;2.22;0.73;;;23.50;84.60;;;;;;5054535;28;20200;-73
2022/05/22 10:22:13;;;;;;;0.60;0.60;;;23.50;83.30;;;;;;5053818;28;20188;-73
2022/05/22 10:24:55;;;;;;;0.80;0.80;;;23.50;82.50;;;;;;5053783;28;20220;-74
2022/05/22 10:27:44;;;;;;;2.17;1.25;;;23.50;81.20;;;;;;5054153;28;20272;-73
2022/05/22 10:30:17;;;;;;;0.70;0.65;;;23.50;79.70;;;;;;5055167;28;20271;-72
2022/05/22 10:32:47;;;;;;;1.05;0.43;;;23.40;78.50;;;;;;5055412;28;20223;-73
2022/05/22 10:35:25;;;;;;;0.63;0.22;;;23.40;77.40;;;;;;5055157;28;20272;-73
2022/05/22 10:37:56;;;;;;;0.30;0.22;;;23.40;77.20;;;;;;5055241;28;20184;-73
2022/05/22 10:40:26;;;;;;;1.75;0.20;;;23.40;76.60;;;;;;5054638;28;20184;-74
2022/05/22 10:42:53;;;;;;;42.20;1.85;;;23.40;76.10;;;;;;5053609;28;20216;-76
2022/05/22 10:45:24;;;;;;;18.92;2.65;;;23.50;75.70;;;;;;5053420;28;20196;-75
2022/05/22 10:47:53;;;;;;;12.18;0.80;;;23.50;75.30;;;;;;5053433;28;20653;-75
2022/05/22 10:50:25;;;;;;;2.67;0.45;;;23.50;74.80;;;;;;5053305;28;20200;-75
2022/05/22 10:52:52;;;;;;;3.78;0.55;;;23.60;74.30;;;;;;5053172;28;20242;-76
2022/05/22 10:55:45;;;;;;;2.47;0.25;;;23.60;74.00;;;;;;5053122;28;20196;-74
2022/05/22 10:58:23;;;;;;;0.73;0.20;;;23.70;73.40;;;;;;5054846;28;20204;-78
2022/05/22 11:00:55;;;;;;;1.45;0.20;;;23.70;73.90;;;;;;5058077;28;20188;-76
2022/05/22 11:03:27;;;;;;;2.67;0.38;;;23.70;72.80;;;;;;5060235;28;20263;-76
2022/05/22 11:05:56;;;;;;;2.03;0.20;;;23.70;72.80;;;;;;5057304;28;20311;-77
2022/05/22 11:08:32;;;;;;;11.27;0.40;;;23.70;72.80;;;;;;5057467;28;20210;-76
2022/05/22 11:11:13;;;;;;;5.70;0.40;;;23.80;72.80;;;;;;5057366;28;20192;-76
2022/05/22 11:13:40;;;;;;;5.18;0.47;;;23.80;72.80;;;;;;5056596;28;20216;-76
2022/05/22 11:16:17;;;;;;;7.10;0.40;;;23.90;72.80;;;;;;5056920;28;20206;-76
2022/05/22 11:18:44;;;;;;;8.43;0.40;;;23.90;72.50;;;;;;5057150;28;20203;-77
2022/05/22 11:21:25;;;;;;;1.33;0.30;;;24.00;72.70;;;;;;5057055;28;20202;-76
2022/05/22 11:24:20;;;;;;;7.53;1.70;;;24.00;72.40;;;;;;5056998;28;20355;-76
2022/05/22 11:27:10;;;;;;;7.63;2.38;;;24.00;72.20;;;;;;5056739;28;20204;-76
2022/05/22 11:30:10;;;;;;;18.45;3.92;;;24.10;72.20;;;;;;5056732;28;20185;-77
2022/05/22 11:32:55;;;;;;;14.95;4.78;;;24.10;72.20;;;;;;5057143;28;20204;-78
2022/05/22 11:35:36;;;;;;;17.45;4.57;;;24.10;72.20;;;;;;5057309;28;20180;-78
2022/05/22 11:38:22;;;;;;;15.25;3.85;;;24.10;72.20;;;;;;5057114;28;20269;-78
2022/05/22 11:41:09;;;;;;;7.60;3.17;;;24.10;72.20;;;;;;5057259;28;20231;-78
2022/05/22 11:44:00;;;;;;;10.52;2.83;;;24.10;72.20;;;;;;5057722;28;20255;-79
2022/05/22 11:46:50;;;;;;;7.65;2.10;;;24.10;72.20;;;;;;5057327;28;20204;-78
2022/05/22 11:49:31;;;;;;;6.53;2.05;;;24.10;72.20;;;;;;5056977;28;20208;-78
2022/05/22 11:55:19;;;;;;;4.85;1.38;;;24.10;72.20;;;;;;5056448;28;20643;-78
2022/05/22 11:58:08;;;;;;;4.00;1.50;;;24.10;72.20;;;;;;5058062;28;20186;-77
2022/05/22 12:00:41;;;;;;;4.43;2.08;;;24.10;72.20;;;;;;5057057;28;20568;-77
2022/05/22 12:03:21;;;;;;;5.72;2.17;;;24.10;72.20;;;;;;5056215;28;20262;-75
2022/05/22 12:06:05;;;;;;;20.00;1.85;;;24.20;72.30;;;;;;5056308;28;20215;-76
2022/05/22 12:08:49;;;;;;;4.25;0.90;;;24.20;72.30;;;;;;5055509;28;20184;-75
2022/05/22 12:11:26;;;;;;;7.13;1.17;;;24.20;72.30;;;;;;5061290;28;20220;-75
2022/05/22 12:13:59;;;;;;;9.43;1.20;;;24.20;72.30;;;;;;5061729;28;20252;-77
2022/05/22 12:16:30;;;;;;;10.43;1.85;;;24.20;72.30;;;;;;5063941;28;20181;-77
2022/05/22 12:19:12;;;;;;;3.65;1.67;;;24.20;73.00;;;;;;5059097;28;20192;-76
2022/05/22 12:21:54;;;;;;;7.07;2.03;;;24.30;72.40;;;;;;5055918;28;20220;-74
2022/05/22 12:24:29;;;;;;;7.50;2.00;;;24.30;72.60;;;;;;5054704;28;20634;-74
2022/05/22 12:26:58;;;;;;;22.33;3.08;;;24.30;72.90;;;;;;5055561;28;20675;-75
2022/05/22 12:29:32;;;;;;;27.30;5.60;;;24.30;73.00;;;;;;5056486;28;20201;-75
2022/05/22 12:32:04;;;;;;;14.02;3.92;;;24.30;73.20;;;;;;5055841;28;20187;-75
2022/05/22 12:34:35;;;;;;;15.32;3.85;;;24.30;73.30;;;;;;5055659;28;20215;-76
2022/05/22 12:37:05;;;;;;;23.35;4.82;;;24.40;73.60;;;;;;5057682;28;20263;-75
2022/05/22 12:39:42;;;;;;;38.75;5.50;;;24.40;73.70;;;;;;5056567;28;20786;-75
2022/05/22 12:42:17;;;;;;;36.50;4.93;;;24.40;73.80;;;;;;5055623;28;20195;-75
2022/05/22 12:44:45;;;;;;;45.15;7.05;;;24.40;73.90;;;;;;5055433;28;20273;-76
2022/05/22 12:47:14;;;;;;;51.65;7.45;;;24.40;74.10;;;;;;5055309;28;20220;-76
2022/05/22 12:49:52;;;;;;;52.13;6.85;;;24.40;74.00;;;;;;5055276;28;20234;-76
2022/05/22 12:52:30;;;;;;;44.35;6.90;;;24.40;74.00;;;;;;5055293;28;20191;-77
2022/05/22 12:54:59;;;;;;;32.35;6.47;;;24.50;74.10;;;;;;5055146;28;20558;-77
2022/05/22 12:57:27;;;;;;;40.40;7.30;;;24.40;74.20;;;;;;5054992;28;20228;-77
2022/05/22 12:59:57;;;;;;;36.70;7.22;;;24.40;74.20;;;;;;5055109;28;20286;-77
2022/05/22 13:02:33;;;;;;;31.50;6.05;;;24.40;74.30;;;;;;5054732;28;20292;-77
2022/05/22 13:05:03;;;;;;;29.67;6.53;;;24.50;74.30;;;;;;5055317;28;20235;-78
2022/05/22 13:07:34;;;;;;;45.17;6.78;;;24.40;74.40;;;;;;5055034;28;20208;-76
2022/05/22 13:10:18;;;;;;;27.88;5.80;;;24.50;74.50;;;;;;5055023;28;20206;-76
2022/05/22 13:12:58;;;;;;;31.50;6.22;;;24.50;74.50;;;;;;5054945;28;20220;-77
2022/05/22 13:15:28;;;;;;;18.95;5.50;;;24.50;74.60;;;;;;5054501;28;20655;-77
2022/05/22 13:18:11;;;;;;;28.63;5.80;;;24.40;74.80;;;;;;5054836;28;20202;-76